sensor_id;sensor_type;location;lat;lon;timestamp;P1;durP1;ratioP1;P2;durP2;ratioP2
5811;SDS011;2932;52.400;9.558;2023-06-10T00:01:47;5.13;;;2.10;;
5811;SDS011;2932;52.400;9.558;2023-06-10T00:04:13;6.47;;;4.18;;
5811;SDS011;2932;52.400;9.558;2023-06-10T00:06:39;10.77;;;3.03;;
5811;SDS011;2932;52.400;9.558;2023-06-10T00:09:06;5.43;;;2.97;;
5811;SDS011;2932;52.400;9.558;2023-06-10T00:11:36;5.30;;;2.65;;
5811;SDS011;2932;52.400;9.558;2023-06-10T00:14:02;4.45;;;2.55;;
5811;SDS011;2932;52.400;9.558;2023-06-10T00:16:28;5.68;;;2.72;;
5811;SDS011;2932;52.400;9.558;2023-06-10T00:18:53;5.75;;;2.75;;
5811;SDS011;2932;52.400;9.558;2023-06-10T00:21:26;5.85;;;2.30;;
5811;SDS011;2932;52.400;9.558;2023-06-10T00:23:53;4.70;;;2.47;;
5811;SDS011;2932;52.400;9.558;2023-06-10T00:26:23;5.38;;;2.80;;
5811;SDS011;2932;52.400;9.558;2023-06-10T00:28:48;5.15;;;2.70;;
5811;SDS011;2932;52.400;9.558;2023-06-10T00:31:14;4.07;;;3.05;;
5811;SDS011;2932;52.400;9.558;2023-06-10T00:33:39;4.32;;;2.63;;
5811;SDS011;2932;52.400;9.558;2023-06-10T00:36:05;4.55;;;2.90;;
5811;SDS011;2932;52.400;9.558;2023-06-10T00:38:30;6.18;;;2.83;;
5811;SDS011;2932;52.400;9.558;2023-06-10T00:40:56;5.63;;;2.60;;
5811;SDS011;2932;52.400;9.558;2023-06-10T00:43:22;4.63;;;2.60;;
5811;SDS011;2932;52.400;9.558;2023-06-10T00:45:47;4.63;;;2.55;;
5811;SDS011;2932;52.400;9.558;2023-06-10T00:48:13;7.32;;;2.65;;
5811;SDS011;2932;52.400;9.558;2023-06-10T00:50:38;5.10;;;2.28;;
5811;SDS011;2932;52.400;9.558;2023-06-10T00:53:06;3.45;;;2.50;;
5811;SDS011;2932;52.400;9.558;2023-06-10T00:55:33;5.05;;;2.53;;
5811;SDS011;2932;52.400;9.558;2023-06-10T00:57:59;8.07;;;2.53;;
5811;SDS011;2932;52.400;9.558;2023-06-10T01:00:25;4.40;;;2.42;;
5811;SDS011;2932;52.400;9.558;2023-06-10T01:02:51;4.53;;;2.92;;
5811;SDS011;2932;52.400;9.558;2023-06-10T01:05:18;4.85;;;2.90;;
5811;SDS011;2932;52.400;9.558;2023-06-10T01:08:06;4.40;;;2.50;;
5811;SDS011;2932;52.400;9.558;2023-06-10T01:10:54;3.58;;;2.78;;
5811;SDS011;2932;52.400;9.558;2023-06-10T01:13:23;4.60;;;2.75;;
5811;SDS011;2932;52.400;9.558;2023-06-10T01:15:53;4.97;;;2.70;;
5811;SDS011;2932;52.400;9.558;2023-06-10T01:18:20;9.40;;;2.80;;
5811;SDS011;2932;52.400;9.558;2023-06-10T01:20:46;8.20;;;2.80;;
5811;SDS011;2932;52.400;9.558;2023-06-10T01:23:13;4.22;;;2.40;;
5811;SDS011;2932;52.400;9.558;2023-06-10T01:25:41;4.60;;;2.70;;
5811;SDS011;2932;52.400;9.558;2023-06-10T01:33:39;7.70;;;2.58;;
5811;SDS011;2932;52.400;9.558;2023-06-10T01:36:15;4.65;;;2.30;;
5811;SDS011;2932;52.400;9.558;2023-06-10T01:38:43;4.35;;;2.25;;
5811;SDS011;2932;52.400;9.558;2023-06-10T01:41:09;5.18;;;3.08;;
5811;SDS011;2932;52.400;9.558;2023-06-10T01:43:37;5.25;;;2.83;;
5811;SDS011;2932;52.400;9.558;2023-06-10T01:46:03;6.18;;;3.08;;
5811;SDS011;2932;52.400;9.558;2023-06-10T01:48:29;5.32;;;2.78;;
5811;SDS011;2932;52.400;9.558;2023-06-10T01:50:54;5.82;;;3.20;;
5811;SDS011;2932;52.400;9.558;2023-06-10T01:53:23;6.28;;;3.05;;
5811;SDS011;2932;52.400;9.558;2023-06-10T01:55:48;4.45;;;3.15;;
5811;SDS011;2932;52.400;9.558;2023-06-10T01:58:13;6.40;;;3.08;;
5811;SDS011;2932;52.400;9.558;2023-06-10T02:00:39;4.32;;;2.97;;
5811;SDS011;2932;52.400;9.558;2023-06-10T02:03:04;5.85;;;3.17;;
5811;SDS011;2932;52.400;9.558;2023-06-10T02:05:30;5.85;;;3.00;;
5811;SDS011;2932;52.400;9.558;2023-06-10T02:07:55;6.43;;;3.28;;
5811;SDS011;2932;52.400;9.558;2023-06-10T02:10:21;6.85;;;3.38;;
5811;SDS011;2932;52.400;9.558;2023-06-10T02:12:46;7.82;;;3.83;;
5811;SDS011;2932;52.400;9.558;2023-06-10T02:15:11;4.70;;;3.00;;
5811;SDS011;2932;52.400;9.558;2023-06-10T02:17:37;5.80;;;3.42;;
5811;SDS011;2932;52.400;9.558;2023-06-10T02:20:02;7.90;;;3.00;;
5811;SDS011;2932;52.400;9.558;2023-06-10T02:22:31;6.80;;;3.45;;
5811;SDS011;2932;52.400;9.558;2023-06-10T02:24:56;6.25;;;3.13;;
5811;SDS011;2932;52.400;9.558;2023-06-10T02:27:22;6.03;;;3.60;;
5811;SDS011;2932;52.400;9.558;2023-06-10T02:29:47;5.35;;;3.65;;
5811;SDS011;2932;52.400;9.558;2023-06-10T02:32:12;7.88;;;3.72;;
5811;SDS011;2932;52.400;9.558;2023-06-10T02:34:38;7.38;;;3.35;;
5811;SDS011;2932;52.400;9.558;2023-06-10T02:37:03;4.93;;;3.22;;
5811;SDS011;2932;52.400;9.558;2023-06-10T02:39:29;7.97;;;4.05;;
5811;SDS011;2932;52.400;9.558;2023-06-10T02:41:55;6.70;;;3.20;;
5811;SDS011;2932;52.400;9.558;2023-06-10T02:44:20;6.43;;;3.60;;
5811;SDS011;2932;52.400;9.558;2023-06-10T02:46:46;6.07;;;3.50;;
5811;SDS011;2932;52.400;9.558;2023-06-10T02:49:11;9.70;;;3.42;;
5811;SDS011;2932;52.400;9.558;2023-06-10T02:51:37;6.90;;;3.20;;
5811;SDS011;2932;52.400;9.558;2023-06-10T02:54:03;6.35;;;3.22;;
5811;SDS011;2932;52.400;9.558;2023-06-10T02:56:29;6.70;;;3.20;;
5811;SDS011;2932;52.400;9.558;2023-06-10T02:58:55;7.68;;;3.53;;
5811;SDS011;2932;52.400;9.558;2023-06-10T03:01:20;5.20;;;3.05;;
5811;SDS011;2932;52.400;9.558;2023-06-10T03:03:46;3.90;;;3.00;;
5811;SDS011;2932;52.400;9.558;2023-06-10T03:06:12;6.05;;;3.45;;
5811;SDS011;2932;52.400;9.558;2023-06-10T03:08:38;5.47;;;2.97;;
5811;SDS011;2932;52.400;9.558;2023-06-10T03:11:05;5.45;;;3.80;;
5811;SDS011;2932;52.400;9.558;2023-06-10T03:13:31;5.40;;;3.28;;
5811;SDS011;2932;52.400;9.558;2023-06-10T03:15:57;6.72;;;3.65;;
5811;SDS011;2932;52.400;9.558;2023-06-10T03:18:25;6.68;;;3.47;;
5811;SDS011;2932;52.400;9.558;2023-06-10T03:20:51;6.60;;;3.45;;
5811;SDS011;2932;52.400;9.558;2023-06-10T03:23:17;7.25;;;3.88;;
5811;SDS011;2932;52.400;9.558;2023-06-10T03:25:43;6.97;;;3.63;;
5811;SDS011;2932;52.400;9.558;2023-06-10T03:28:09;6.80;;;3.90;;
5811;SDS011;2932;52.400;9.558;2023-06-10T03:30:35;7.10;;;3.75;;
5811;SDS011;2932;52.400;9.558;2023-06-10T03:33:00;9.02;;;3.67;;
5811;SDS011;2932;52.400;9.558;2023-06-10T03:35:25;5.82;;;3.10;;
5811;SDS011;2932;52.400;9.558;2023-06-10T03:37:51;8.10;;;4.00;;
5811;SDS011;2932;52.400;9.558;2023-06-10T03:40:16;9.55;;;4.07;;
5811;SDS011;2932;52.400;9.558;2023-06-10T03:42:41;8.13;;;3.70;;
5811;SDS011;2932;52.400;9.558;2023-06-10T03:45:09;8.77;;;3.80;;
5811;SDS011;2932;52.400;9.558;2023-06-10T03:47:35;6.20;;;4.07;;
5811;SDS011;2932;52.400;9.558;2023-06-10T03:50:02;4.18;;;2.92;;
5811;SDS011;2932;52.400;9.558;2023-06-10T03:52:28;7.15;;;4.07;;
5811;SDS011;2932;52.400;9.558;2023-06-10T03:54:54;6.45;;;3.80;;
5811;SDS011;2932;52.400;9.558;2023-06-10T03:57:19;9.73;;;4.18;;
5811;SDS011;2932;52.400;9.558;2023-06-10T03:59:45;6.40;;;3.83;;
5811;SDS011;2932;52.400;9.558;2023-06-10T04:02:10;8.05;;;4.13;;
5811;SDS011;2932;52.400;9.558;2023-06-10T04:04:36;7.47;;;3.65;;
5811;SDS011;2932;52.400;9.558;2023-06-10T04:07:02;8.10;;;3.95;;
5811;SDS011;2932;52.400;9.558;2023-06-10T04:09:28;5.10;;;3.83;;
5811;SDS011;2932;52.400;9.558;2023-06-10T04:11:53;7.40;;;3.90;;
5811;SDS011;2932;52.400;9.558;2023-06-10T04:14:19;7.55;;;4.18;;
5811;SDS011;2932;52.400;9.558;2023-06-10T04:16:44;7.85;;;4.07;;
5811;SDS011;2932;52.400;9.558;2023-06-10T04:19:09;7.95;;;4.05;;
5811;SDS011;2932;52.400;9.558;2023-06-10T04:21:35;6.65;;;3.50;;
5811;SDS011;2932;52.400;9.558;2023-06-10T04:24:01;7.60;;;4.40;;
5811;SDS011;2932;52.400;9.558;2023-06-10T04:26:26;6.25;;;3.88;;
5811;SDS011;2932;52.400;9.558;2023-06-10T04:28:52;7.43;;;4.18;;
5811;SDS011;2932;52.400;9.558;2023-06-10T04:31:17;7.05;;;3.97;;
5811;SDS011;2932;52.400;9.558;2023-06-10T04:33:43;9.77;;;4.28;;
5811;SDS011;2932;52.400;9.558;2023-06-10T04:36:08;7.18;;;4.18;;
5811;SDS011;2932;52.400;9.558;2023-06-10T04:38:34;8.85;;;4.25;;
5811;SDS011;2932;52.400;9.558;2023-06-10T04:40:59;9.55;;;4.95;;
5811;SDS011;2932;52.400;9.558;2023-06-10T04:43:24;9.77;;;5.22;;
5811;SDS011;2932;52.400;9.558;2023-06-10T04:45:50;7.13;;;4.30;;
5811;SDS011;2932;52.400;9.558;2023-06-10T04:48:15;9.10;;;5.03;;
5811;SDS011;2932;52.400;9.558;2023-06-10T04:50:41;9.32;;;5.00;;
5811;SDS011;2932;52.400;9.558;2023-06-10T04:53:06;8.68;;;4.40;;
5811;SDS011;2932;52.400;9.558;2023-06-10T04:55:32;9.15;;;5.40;;
5811;SDS011;2932;52.400;9.558;2023-06-10T04:57:59;8.95;;;4.50;;
5811;SDS011;2932;52.400;9.558;2023-06-10T05:00:24;8.73;;;4.82;;
5811;SDS011;2932;52.400;9.558;2023-06-10T05:02:49;10.18;;;4.82;;
5811;SDS011;2932;52.400;9.558;2023-06-10T05:05:16;8.68;;;4.90;;
5811;SDS011;2932;52.400;9.558;2023-06-10T05:07:42;10.07;;;4.85;;
5811;SDS011;2932;52.400;9.558;2023-06-10T05:10:07;6.70;;;4.38;;
5811;SDS011;2932;52.400;9.558;2023-06-10T05:12:33;10.40;;;4.63;;
5811;SDS011;2932;52.400;9.558;2023-06-10T05:14:58;12.90;;;4.72;;
5811;SDS011;2932;52.400;9.558;2023-06-10T05:17:24;7.78;;;4.43;;
5811;SDS011;2932;52.400;9.558;2023-06-10T05:19:50;6.05;;;4.38;;
5811;SDS011;2932;52.400;9.558;2023-06-10T05:22:16;8.75;;;4.53;;
5811;SDS011;2932;52.400;9.558;2023-06-10T05:24:43;7.07;;;4.43;;
5811;SDS011;2932;52.400;9.558;2023-06-10T05:27:09;9.30;;;4.15;;
5811;SDS011;2932;52.400;9.558;2023-06-10T05:29:35;8.68;;;4.60;;
5811;SDS011;2932;52.400;9.558;2023-06-10T05:32:00;10.73;;;5.30;;
5811;SDS011;2932;52.400;9.558;2023-06-10T05:34:28;8.32;;;4.47;;
5811;SDS011;2932;52.400;9.558;2023-06-10T05:36:54;8.00;;;5.10;;
5811;SDS011;2932;52.400;9.558;2023-06-10T05:39:20;8.18;;;4.78;;
5811;SDS011;2932;52.400;9.558;2023-06-10T05:41:45;11.23;;;5.07;;
5811;SDS011;2932;52.400;9.558;2023-06-10T05:44:11;10.35;;;4.80;;
5811;SDS011;2932;52.400;9.558;2023-06-10T05:46:36;7.13;;;4.28;;
5811;SDS011;2932;52.400;9.558;2023-06-10T05:49:02;7.60;;;4.50;;
5811;SDS011;2932;52.400;9.558;2023-06-10T05:51:27;8.32;;;4.68;;
5811;SDS011;2932;52.400;9.558;2023-06-10T05:53:53;6.50;;;4.47;;
5811;SDS011;2932;52.400;9.558;2023-06-10T05:56:19;8.85;;;4.50;;
5811;SDS011;2932;52.400;9.558;2023-06-10T05:58:46;6.15;;;4.43;;
5811;SDS011;2932;52.400;9.558;2023-06-10T06:01:11;7.43;;;4.53;;
5811;SDS011;2932;52.400;9.558;2023-06-10T06:03:37;8.63;;;4.78;;
5811;SDS011;2932;52.400;9.558;2023-06-10T06:06:02;6.63;;;4.60;;
5811;SDS011;2932;52.400;9.558;2023-06-10T06:08:28;6.95;;;4.13;;
5811;SDS011;2932;52.400;9.558;2023-06-10T06:10:53;10.13;;;4.10;;
5811;SDS011;2932;52.400;9.558;2023-06-10T06:13:18;7.93;;;4.57;;
5811;SDS011;2932;52.400;9.558;2023-06-10T06:15:44;8.48;;;4.35;;
5811;SDS011;2932;52.400;9.558;2023-06-10T06:18:09;7.22;;;4.10;;
5811;SDS011;2932;52.400;9.558;2023-06-10T06:20:34;5.65;;;3.63;;
5811;SDS011;2932;52.400;9.558;2023-06-10T06:23:00;8.63;;;4.70;;
5811;SDS011;2932;52.400;9.558;2023-06-10T06:25:25;7.20;;;4.38;;
5811;SDS011;2932;52.400;9.558;2023-06-10T06:27:50;7.40;;;4.40;;
5811;SDS011;2932;52.400;9.558;2023-06-10T06:30:16;7.10;;;4.30;;
5811;SDS011;2932;52.400;9.558;2023-06-10T06:32:41;8.02;;;4.45;;
5811;SDS011;2932;52.400;9.558;2023-06-10T06:35:07;8.57;;;4.22;;
5811;SDS011;2932;52.400;9.558;2023-06-10T06:37:33;11.07;;;4.72;;
5811;SDS011;2932;52.400;9.558;2023-06-10T06:39:58;9.60;;;4.18;;
5811;SDS011;2932;52.400;9.558;2023-06-10T06:42:24;8.50;;;4.97;;
5811;SDS011;2932;52.400;9.558;2023-06-10T06:44:49;8.77;;;6.47;;
5811;SDS011;2932;52.400;9.558;2023-06-10T06:47:14;8.02;;;4.35;;
5811;SDS011;2932;52.400;9.558;2023-06-10T06:49:42;7.80;;;4.63;;
5811;SDS011;2932;52.400;9.558;2023-06-10T06:52:08;7.78;;;4.65;;
5811;SDS011;2932;52.400;9.558;2023-06-10T06:54:33;8.30;;;4.95;;
5811;SDS011;2932;52.400;9.558;2023-06-10T06:56:58;5.05;;;4.10;;
5811;SDS011;2932;52.400;9.558;2023-06-10T06:59:24;8.85;;;5.13;;
5811;SDS011;2932;52.400;9.558;2023-06-10T07:01:50;7.40;;;4.55;;
5811;SDS011;2932;52.400;9.558;2023-06-10T07:04:16;5.78;;;4.35;;
5811;SDS011;2932;52.400;9.558;2023-06-10T07:06:41;7.82;;;4.25;;
5811;SDS011;2932;52.400;9.558;2023-06-10T07:09:07;7.75;;;4.18;;
5811;SDS011;2932;52.400;9.558;2023-06-10T07:11:34;7.70;;;4.50;;
5811;SDS011;2932;52.400;9.558;2023-06-10T07:13:59;7.60;;;3.95;;
5811;SDS011;2932;52.400;9.558;2023-06-10T07:16:24;6.65;;;3.92;;
5811;SDS011;2932;52.400;9.558;2023-06-10T07:18:50;8.95;;;4.72;;
5811;SDS011;2932;52.400;9.558;2023-06-10T07:21:15;5.60;;;4.22;;
5811;SDS011;2932;52.400;9.558;2023-06-10T07:23:43;8.35;;;4.07;;
5811;SDS011;2932;52.400;9.558;2023-06-10T07:26:10;7.45;;;4.22;;
5811;SDS011;2932;52.400;9.558;2023-06-10T07:28:41;5.85;;;3.67;;
5811;SDS011;2932;52.400;9.558;2023-06-10T07:31:07;7.68;;;4.13;;
5811;SDS011;2932;52.400;9.558;2023-06-10T07:33:33;8.15;;;4.63;;
5811;SDS011;2932;52.400;9.558;2023-06-10T07:35:59;9.13;;;4.57;;
5811;SDS011;2932;52.400;9.558;2023-06-10T07:38:24;6.35;;;4.03;;
5811;SDS011;2932;52.400;9.558;2023-06-10T07:40:50;8.60;;;4.22;;
5811;SDS011;2932;52.400;9.558;2023-06-10T07:43:16;6.57;;;4.20;;
5811;SDS011;2932;52.400;9.558;2023-06-10T07:45:41;9.38;;;4.40;;
5811;SDS011;2932;52.400;9.558;2023-06-10T07:48:06;8.07;;;4.13;;
5811;SDS011;2932;52.400;9.558;2023-06-10T07:50:32;7.63;;;4.07;;
5811;SDS011;2932;52.400;9.558;2023-06-10T07:52:58;6.75;;;4.25;;
5811;SDS011;2932;52.400;9.558;2023-06-10T07:55:23;8.55;;;4.40;;
5811;SDS011;2932;52.400;9.558;2023-06-10T07:57:50;9.23;;;4.85;;
5811;SDS011;2932;52.400;9.558;2023-06-10T08:00:16;12.45;;;7.20;;
5811;SDS011;2932;52.400;9.558;2023-06-10T08:02:42;8.60;;;3.95;;
5811;SDS011;2932;52.400;9.558;2023-06-10T08:05:07;6.47;;;3.78;;
5811;SDS011;2932;52.400;9.558;2023-06-10T08:07:33;7.60;;;4.03;;
5811;SDS011;2932;52.400;9.558;2023-06-10T08:09:58;6.35;;;3.92;;
5811;SDS011;2932;52.400;9.558;2023-06-10T08:12:23;8.60;;;3.65;;
5811;SDS011;2932;52.400;9.558;2023-06-10T08:14:49;6.93;;;3.92;;
5811;SDS011;2932;52.400;9.558;2023-06-10T08:17:14;8.70;;;3.95;;
5811;SDS011;2932;52.400;9.558;2023-06-10T08:19:40;10.20;;;3.85;;
5811;SDS011;2932;52.400;9.558;2023-06-10T08:22:08;6.07;;;3.50;;
5811;SDS011;2932;52.400;9.558;2023-06-10T08:24:35;6.28;;;3.95;;
5811;SDS011;2932;52.400;9.558;2023-06-10T08:27:00;7.28;;;4.18;;
5811;SDS011;2932;52.400;9.558;2023-06-10T08:29:25;6.80;;;4.57;;
5811;SDS011;2932;52.400;9.558;2023-06-10T08:31:50;6.35;;;3.78;;
5811;SDS011;2932;52.400;9.558;2023-06-10T08:34:16;6.82;;;3.95;;
5811;SDS011;2932;52.400;9.558;2023-06-10T08:36:42;7.80;;;4.30;;
5811;SDS011;2932;52.400;9.558;2023-06-10T08:39:09;8.02;;;3.75;;
5811;SDS011;2932;52.400;9.558;2023-06-10T08:41:35;7.45;;;3.58;;
5811;SDS011;2932;52.400;9.558;2023-06-10T08:44:17;6.13;;;4.07;;
5811;SDS011;2932;52.400;9.558;2023-06-10T08:46:52;5.25;;;3.20;;
5811;SDS011;2932;52.400;9.558;2023-06-10T08:49:20;7.82;;;3.58;;
5811;SDS011;2932;52.400;9.558;2023-06-10T08:51:54;4.90;;;3.47;;
5811;SDS011;2932;52.400;9.558;2023-06-10T08:54:25;8.27;;;4.03;;
5811;SDS011;2932;52.400;9.558;2023-06-10T08:56:52;7.45;;;4.10;;
5811;SDS011;2932;52.400;9.558;2023-06-10T08:59:20;5.97;;;4.18;;
5811;SDS011;2932;52.400;9.558;2023-06-10T09:01:46;6.35;;;3.95;;
5811;SDS011;2932;52.400;9.558;2023-06-10T09:04:12;5.57;;;3.30;;
5811;SDS011;2932;52.400;9.558;2023-06-10T09:06:39;8.77;;;3.53;;
5811;SDS011;2932;52.400;9.558;2023-06-10T09:09:05;6.45;;;3.65;;
5811;SDS011;2932;52.400;9.558;2023-06-10T09:11:31;6.00;;;3.67;;
5811;SDS011;2932;52.400;9.558;2023-06-10T09:13:57;4.75;;;3.42;;
5811;SDS011;2932;52.400;9.558;2023-06-10T09:16:23;4.32;;;3.20;;
5811;SDS011;2932;52.400;9.558;2023-06-10T09:18:49;4.65;;;3.10;;
5811;SDS011;2932;52.400;9.558;2023-06-10T09:21:20;6.22;;;4.40;;
5811;SDS011;2932;52.400;9.558;2023-06-10T09:23:48;6.43;;;3.65;;
5811;SDS011;2932;52.400;9.558;2023-06-10T09:26:14;6.75;;;3.30;;
5811;SDS011;2932;52.400;9.558;2023-06-10T09:28:41;5.45;;;3.20;;
5811;SDS011;2932;52.400;9.558;2023-06-10T09:31:12;4.88;;;3.45;;
5811;SDS011;2932;52.400;9.558;2023-06-10T09:33:39;6.82;;;4.05;;
5811;SDS011;2932;52.400;9.558;2023-06-10T09:36:04;5.53;;;3.60;;
5811;SDS011;2932;52.400;9.558;2023-06-10T09:38:31;4.25;;;3.10;;
5811;SDS011;2932;52.400;9.558;2023-06-10T09:40:57;5.65;;;3.60;;
5811;SDS011;2932;52.400;9.558;2023-06-10T09:43:23;4.32;;;3.17;;
5811;SDS011;2932;52.400;9.558;2023-06-10T09:46:07;3.45;;;3.03;;
5811;SDS011;2932;52.400;9.558;2023-06-10T09:48:43;6.13;;;3.20;;
5811;SDS011;2932;52.400;9.558;2023-06-10T09:51:10;6.35;;;3.00;;
5811;SDS011;2932;52.400;9.558;2023-06-10T09:53:35;5.72;;;3.55;;
5811;SDS011;2932;52.400;9.558;2023-06-10T09:56:01;5.85;;;3.60;;
5811;SDS011;2932;52.400;9.558;2023-06-10T09:58:36;5.70;;;3.47;;
5811;SDS011;2932;52.400;9.558;2023-06-10T10:01:09;3.45;;;2.85;;
5811;SDS011;2932;52.400;9.558;2023-06-10T10:03:43;5.65;;;3.35;;
5811;SDS011;2932;52.400;9.558;2023-06-10T10:06:15;3.55;;;2.95;;
5811;SDS011;2932;52.400;9.558;2023-06-10T10:08:41;6.30;;;3.33;;
5811;SDS011;2932;52.400;9.558;2023-06-10T10:11:08;6.22;;;3.38;;
5811;SDS011;2932;52.400;9.558;2023-06-10T10:13:34;5.38;;;3.38;;
5811;SDS011;2932;52.400;9.558;2023-06-10T10:16:09;5.25;;;3.40;;
5811;SDS011;2932;52.400;9.558;2023-06-10T10:18:38;4.65;;;3.08;;
5811;SDS011;2932;52.400;9.558;2023-06-10T10:21:09;6.25;;;2.90;;
5811;SDS011;2932;52.400;9.558;2023-06-10T10:23:43;5.80;;;3.30;;
5811;SDS011;2932;52.400;9.558;2023-06-10T10:26:15;4.03;;;2.80;;
5811;SDS011;2932;52.400;9.558;2023-06-10T10:28:45;3.00;;;2.70;;
5811;SDS011;2932;52.400;9.558;2023-06-10T10:31:16;6.50;;;3.50;;
5811;SDS011;2932;52.400;9.558;2023-06-10T10:33:48;5.20;;;2.80;;
5811;SDS011;2932;52.400;9.558;2023-06-10T10:36:21;6.13;;;3.63;;
5811;SDS011;2932;52.400;9.558;2023-06-10T10:38:47;6.00;;;3.20;;
5811;SDS011;2932;52.400;9.558;2023-06-10T10:41:13;5.85;;;3.60;;
5811;SDS011;2932;52.400;9.558;2023-06-10T10:43:40;4.80;;;3.13;;
5811;SDS011;2932;52.400;9.558;2023-06-10T10:46:09;3.85;;;2.80;;
5811;SDS011;2932;52.400;9.558;2023-06-10T10:48:38;4.63;;;3.47;;
5811;SDS011;2932;52.400;9.558;2023-06-10T10:51:04;8.57;;;3.10;;
5811;SDS011;2932;52.400;9.558;2023-06-10T10:53:29;5.75;;;3.45;;
5811;SDS011;2932;52.400;9.558;2023-06-10T10:56:04;5.00;;;3.38;;
5811;SDS011;2932;52.400;9.558;2023-06-10T10:58:37;4.18;;;3.25;;
5811;SDS011;2932;52.400;9.558;2023-06-10T11:01:13;5.18;;;3.35;;
5811;SDS011;2932;52.400;9.558;2023-06-10T11:03:43;4.82;;;3.40;;
5811;SDS011;2932;52.400;9.558;2023-06-10T11:06:16;5.97;;;3.53;;
5811;SDS011;2932;52.400;9.558;2023-06-10T11:11:23;5.53;;;3.92;;
5811;SDS011;2932;52.400;9.558;2023-06-10T11:16:38;4.72;;;3.28;;
5811;SDS011;2932;52.400;9.558;2023-06-10T11:19:08;5.18;;;3.40;;
5811;SDS011;2932;52.400;9.558;2023-06-10T11:21:39;4.28;;;3.25;;
5811;SDS011;2932;52.400;9.558;2023-06-10T11:24:23;5.22;;;3.80;;
5811;SDS011;2932;52.400;9.558;2023-06-10T11:26:48;5.15;;;3.47;;
5811;SDS011;2932;52.400;9.558;2023-06-10T11:29:14;5.53;;;3.60;;
5811;SDS011;2932;52.400;9.558;2023-06-10T11:34:20;4.80;;;3.50;;
5811;SDS011;2932;52.400;9.558;2023-06-10T11:36:48;8.15;;;4.10;;
5811;SDS011;2932;52.400;9.558;2023-06-10T11:39:14;5.50;;;4.15;;
5811;SDS011;2932;52.400;9.558;2023-06-10T11:41:40;5.22;;;3.63;;
5811;SDS011;2932;52.400;9.558;2023-06-10T11:44:11;5.88;;;3.72;;
5811;SDS011;2932;52.400;9.558;2023-06-10T11:46:38;6.78;;;3.75;;
5811;SDS011;2932;52.400;9.558;2023-06-10T11:49:05;6.47;;;4.03;;
5811;SDS011;2932;52.400;9.558;2023-06-10T11:51:35;4.40;;;3.45;;
5811;SDS011;2932;52.400;9.558;2023-06-10T11:54:04;6.82;;;4.78;;
5811;SDS011;2932;52.400;9.558;2023-06-10T11:56:30;4.20;;;3.72;;
5811;SDS011;2932;52.400;9.558;2023-06-10T11:58:57;4.65;;;3.50;;
5811;SDS011;2932;52.400;9.558;2023-06-10T12:01:23;4.63;;;3.47;;
5811;SDS011;2932;52.400;9.558;2023-06-10T12:03:56;6.13;;;4.10;;
5811;SDS011;2932;52.400;9.558;2023-06-10T12:09:17;5.40;;;3.63;;
5811;SDS011;2932;52.400;9.558;2023-06-10T12:11:51;4.95;;;3.88;;
5811;SDS011;2932;52.400;9.558;2023-06-10T12:17:19;5.07;;;3.67;;
5811;SDS011;2932;52.400;9.558;2023-06-10T12:19:57;5.68;;;3.88;;
5811;SDS011;2932;52.400;9.558;2023-06-10T12:22:23;4.93;;;3.67;;
5811;SDS011;2932;52.400;9.558;2023-06-10T12:24:59;6.35;;;3.65;;
5811;SDS011;2932;52.400;9.558;2023-06-10T12:27:27;6.43;;;3.88;;
5811;SDS011;2932;52.400;9.558;2023-06-10T12:29:55;4.60;;;4.05;;
5811;SDS011;2932;52.400;9.558;2023-06-10T12:32:34;4.80;;;3.80;;
5811;SDS011;2932;52.400;9.558;2023-06-10T12:35:07;7.38;;;4.30;;
5811;SDS011;2932;52.400;9.558;2023-06-10T12:37:33;6.13;;;3.42;;
5811;SDS011;2932;52.400;9.558;2023-06-10T12:40:00;4.68;;;3.90;;
5811;SDS011;2932;52.400;9.558;2023-06-10T12:42:28;5.97;;;4.53;;
5811;SDS011;2932;52.400;9.558;2023-06-10T12:44:54;4.70;;;3.90;;
5811;SDS011;2932;52.400;9.558;2023-06-10T12:47:28;5.47;;;4.00;;
5811;SDS011;2932;52.400;9.558;2023-06-10T12:50:06;6.78;;;4.68;;
5811;SDS011;2932;52.400;9.558;2023-06-10T12:52:32;7.60;;;4.35;;
5811;SDS011;2932;52.400;9.558;2023-06-10T12:54:58;6.20;;;4.47;;
5811;SDS011;2932;52.400;9.558;2023-06-10T12:57:24;4.88;;;4.38;;
5811;SDS011;2932;52.400;9.558;2023-06-10T12:59:49;6.03;;;4.90;;
5811;SDS011;2932;52.400;9.558;2023-06-10T13:02:17;5.28;;;4.75;;
5811;SDS011;2932;52.400;9.558;2023-06-10T13:04:44;6.93;;;4.57;;
5811;SDS011;2932;52.400;9.558;2023-06-10T13:07:10;6.10;;;4.32;;
5811;SDS011;2932;52.400;9.558;2023-06-10T13:09:35;7.55;;;4.65;;
5811;SDS011;2932;52.400;9.558;2023-06-10T13:12:01;5.05;;;4.47;;
5811;SDS011;2932;52.400;9.558;2023-06-10T13:14:27;5.00;;;4.43;;
5811;SDS011;2932;52.400;9.558;2023-06-10T13:16:53;4.82;;;4.18;;
5811;SDS011;2932;52.400;9.558;2023-06-10T13:19:19;6.20;;;4.50;;
5811;SDS011;2932;52.400;9.558;2023-06-10T13:21:46;7.60;;;4.80;;
5811;SDS011;2932;52.400;9.558;2023-06-10T13:24:12;6.25;;;4.07;;
5811;SDS011;2932;52.400;9.558;2023-06-10T13:26:37;6.60;;;4.63;;
5811;SDS011;2932;52.400;9.558;2023-06-10T13:29:02;6.32;;;4.53;;
5811;SDS011;2932;52.400;9.558;2023-06-10T13:31:28;6.30;;;4.13;;
5811;SDS011;2932;52.400;9.558;2023-06-10T13:33:53;6.20;;;4.70;;
5811;SDS011;2932;52.400;9.558;2023-06-10T13:36:18;4.70;;;4.22;;
5811;SDS011;2932;52.400;9.558;2023-06-10T13:38:44;5.53;;;4.28;;
5811;SDS011;2932;52.400;9.558;2023-06-10T13:41:10;9.95;;;4.82;;
5811;SDS011;2932;52.400;9.558;2023-06-10T13:43:35;5.72;;;4.40;;
5811;SDS011;2932;52.400;9.558;2023-06-10T13:46:01;7.18;;;4.97;;
5811;SDS011;2932;52.400;9.558;2023-06-10T13:48:26;4.45;;;4.05;;
5811;SDS011;2932;52.400;9.558;2023-06-10T13:50:51;7.00;;;4.65;;
5811;SDS011;2932;52.400;9.558;2023-06-10T13:53:16;5.38;;;4.80;;
5811;SDS011;2932;52.400;9.558;2023-06-10T13:55:42;6.80;;;4.57;;
5811;SDS011;2932;52.400;9.558;2023-06-10T13:58:07;7.40;;;4.32;;
5811;SDS011;2932;52.400;9.558;2023-06-10T14:00:33;5.80;;;4.35;;
5811;SDS011;2932;52.400;9.558;2023-06-10T14:02:58;6.32;;;4.40;;
5811;SDS011;2932;52.400;9.558;2023-06-10T14:05:23;6.75;;;4.47;;
5811;SDS011;2932;52.400;9.558;2023-06-10T14:07:49;5.72;;;4.60;;
5811;SDS011;2932;52.400;9.558;2023-06-10T14:10:14;4.88;;;4.38;;
5811;SDS011;2932;52.400;9.558;2023-06-10T14:12:40;5.95;;;4.47;;
5811;SDS011;2932;52.400;9.558;2023-06-10T14:15:05;4.60;;;4.20;;
5811;SDS011;2932;52.400;9.558;2023-06-10T14:17:31;5.55;;;4.15;;
5811;SDS011;2932;52.400;9.558;2023-06-10T14:19:56;5.07;;;4.57;;
5811;SDS011;2932;52.400;9.558;2023-06-10T14:22:22;7.18;;;4.10;;
5811;SDS011;2932;52.400;9.558;2023-06-10T14:24:47;6.13;;;5.07;;
5811;SDS011;2932;52.400;9.558;2023-06-10T14:27:12;5.93;;;4.70;;
5811;SDS011;2932;52.400;9.558;2023-06-10T14:29:38;7.57;;;4.50;;
5811;SDS011;2932;52.400;9.558;2023-06-10T14:32:03;4.82;;;4.32;;
5811;SDS011;2932;52.400;9.558;2023-06-10T14:34:29;6.28;;;4.35;;
5811;SDS011;2932;52.400;9.558;2023-06-10T14:36:58;5.82;;;4.07;;
5811;SDS011;2932;52.400;9.558;2023-06-10T14:39:24;5.10;;;4.20;;
5811;SDS011;2932;52.400;9.558;2023-06-10T14:41:50;6.47;;;4.47;;
5811;SDS011;2932;52.400;9.558;2023-06-10T14:44:17;5.80;;;4.30;;
5811;SDS011;2932;52.400;9.558;2023-06-10T14:46:42;5.55;;;4.10;;
5811;SDS011;2932;52.400;9.558;2023-06-10T14:49:08;8.30;;;4.15;;
5811;SDS011;2932;52.400;9.558;2023-06-10T14:51:33;6.50;;;4.10;;
5811;SDS011;2932;52.400;9.558;2023-06-10T14:53:59;4.30;;;3.90;;
5811;SDS011;2932;52.400;9.558;2023-06-10T14:56:24;4.25;;;3.70;;
5811;SDS011;2932;52.400;9.558;2023-06-10T14:58:50;5.28;;;4.35;;
5811;SDS011;2932;52.400;9.558;2023-06-10T15:01:16;6.15;;;5.05;;
5811;SDS011;2932;52.400;9.558;2023-06-10T15:03:43;8.95;;;4.70;;
5811;SDS011;2932;52.400;9.558;2023-06-10T15:06:09;10.30;;;4.57;;
5811;SDS011;2932;52.400;9.558;2023-06-10T15:08:34;4.65;;;4.18;;
5811;SDS011;2932;52.400;9.558;2023-06-10T15:11:00;6.88;;;4.13;;
5811;SDS011;2932;52.400;9.558;2023-06-10T15:13:27;4.88;;;4.25;;
5811;SDS011;2932;52.400;9.558;2023-06-10T15:15:52;4.45;;;4.05;;
5811;SDS011;2932;52.400;9.558;2023-06-10T15:18:17;7.53;;;4.15;;
5811;SDS011;2932;52.400;9.558;2023-06-10T15:20:43;4.38;;;3.67;;
5811;SDS011;2932;52.400;9.558;2023-06-10T15:23:09;4.68;;;3.90;;
5811;SDS011;2932;52.400;9.558;2023-06-10T15:25:36;4.07;;;3.60;;
5811;SDS011;2932;52.400;9.558;2023-06-10T15:28:01;5.43;;;4.10;;
5811;SDS011;2932;52.400;9.558;2023-06-10T15:30:27;6.28;;;4.40;;
5811;SDS011;2932;52.400;9.558;2023-06-10T15:32:52;4.78;;;4.03;;